Time;durP1;ratioP1;P1;durP2;ratioP2;P2;SDS_P1;SDS_P2;PMS_P1;PMS_P2;Temp;Humidity;BMP_temperature;BMP_pressure;BME280_temperature;BME280_humidity;BME280_pressure;Samples;Min_cycle;Max_cycle;Signal;HPM_P1;HPM_P2
2022/03/24 00:02:24;;;;;;;40.98;29.35;;;;;;;6.66;60.41;101387.67;2815495;83;21054;-69
2022/03/24 00:06:26;;;;;;;43.85;30.30;;;;;;;6.55;61.38;101374.12;2823848;82;21014;-69
2022/03/24 00:10:27;;;;;;;44.08;33.05;;;;;;;6.36;62.25;101380.28;2816621;83;21082;-69
2022/03/24 00:14:29;;;;;;;45.70;31.77;;;;;;;6.28;61.05;101374.48;2824109;82;21137;-69
2022/03/24 00:18:32;;;;;;;45.65;29.20;;;;;;;6.16;62.40;101373.74;2822337;82;21046;-69
2022/03/24 00:22:33;;;;;;;51.77;32.35;;;;;;;6.03;62.73;101372.13;2829485;83;21065;-69
2022/03/24 00:26:35;;;;;;;53.58;33.88;;;;;;;5.86;62.63;101369.75;2820101;82;21137;-69
2022/03/24 00:30:37;;;;;;;55.25;33.80;;;;;;;5.72;62.89;101375.17;2821949;82;21566;-69
2022/03/24 00:34:39;;;;;;;53.08;33.10;;;;;;;5.61;63.86;101366.88;2830937;83;21054;-68
2022/03/24 00:38:41;;;;;;;62.58;34.48;;;;;;;5.56;64.44;101366.20;2812425;83;21055;-69
2022/03/24 00:42:44;;;;;;;56.70;34.67;;;;;;;5.49;65.03;101365.61;2824259;83;21027;-69
2022/03/24 00:46:45;;;;;;;44.85;31.27;;;;;;;5.45;64.93;101368.47;2822873;83;21069;-69
2022/03/24 00:50:47;;;;;;;56.75;34.83;;;;;;;5.47;64.37;101360.86;2824383;83;21106;-69
2022/03/24 00:54:48;;;;;;;50.08;31.80;;;;;;;5.42;64.53;101368.13;2832021;83;21050;-69
2022/03/24 00:58:50;;;;;;;52.85;31.12;;;;;;;5.30;65.91;101361.59;2819848;82;21030;-69
2022/03/24 01:02:54;;;;;;;53.90;31.60;;;;;;;5.21;65.51;101361.97;2819822;83;21140;-69
2022/03/24 01:06:55;;;;;;;55.35;36.38;;;;;;;5.10;65.39;101361.97;2810379;83;21539;-69
2022/03/24 01:10:57;;;;;;;53.48;32.83;;;;;;;5.09;66.22;101363.34;2816833;82;21125;-69
2022/03/24 01:14:59;;;;;;;48.35;34.03;;;;;;;4.99;65.67;101369.02;2821047;82;21158;-69
2022/03/24 01:19:01;;;;;;;53.05;34.48;;;;;;;4.89;67.69;101367.66;2826068;83;21045;-69
2022/03/24 01:23:03;;;;;;;48.28;32.85;;;;;;;4.85;67.45;101364.75;2820863;82;21054;-69
2022/03/24 01:27:06;;;;;;;55.12;34.27;;;;;;;4.77;67.99;101362.90;2818567;82;21114;-69
2022/03/24 01:31:09;;;;;;;47.58;32.28;;;;;;;4.74;67.11;101365.66;2811475;82;20983;-69
2022/03/24 01:35:11;;;;;;;52.40;33.55;;;;;;;4.68;67.21;101366.28;2821216;82;21114;-69
2022/03/24 01:39:13;;;;;;;58.23;32.85;;;;;;;4.64;67.42;101369.13;2831579;82;21782;-69
2022/03/24 01:43:14;;;;;;;51.48;35.28;;;;;;;4.57;67.62;101367.19;2831294;82;21048;-69
2022/03/24 01:47:16;;;;;;;51.65;36.77;;;;;;;4.61;67.30;101372.73;2830700;82;21036;-69
2022/03/24 01:51:18;;;;;;;52.95;34.50;;;;;;;4.61;67.62;101364.82;2822124;81;21052;-68
2022/03/24 01:55:20;;;;;;;60.10;36.13;;;;;;;4.62;67.12;101370.48;2842177;81;21056;-68
2022/03/24 01:59:21;;;;;;;57.35;35.28;;;;;;;4.61;67.37;101368.77;2824066;82;21012;-69
2022/03/24 02:03:23;;;;;;;54.60;36.10;;;;;;;4.56;67.65;101367.62;2825283;81;21003;-68
2022/03/24 02:07:25;;;;;;;56.15;35.08;;;;;;;4.49;66.31;101371.44;2824813;82;21047;-69
2022/03/24 02:11:30;;;;;;;60.25;37.75;;;;;;;4.41;65.90;101371.73;2817294;82;21039;-69
2022/03/24 02:15:33;;;;;;;52.90;37.23;;;;;;;4.39;65.76;101375.33;2830612;82;21063;-69
2022/03/24 02:19:36;;;;;;;57.13;35.23;;;;;;;4.37;65.77;101373.22;2826500;81;21108;-69
2022/03/24 02:23:38;;;;;;;60.25;36.85;;;;;;;4.29;66.16;101382.73;2831739;81;21032;-69
2022/03/24 02:27:40;;;;;;;54.77;34.90;;;;;;;4.25;66.02;101376.73;2831943;82;21051;-69
2022/03/24 02:31:46;;;;;;;53.42;34.45;;;;;;;4.21;66.19;101378.22;2825164;81;21043;-69
2022/03/24 02:35:48;;;;;;;47.10;32.53;;;;;;;4.21;66.10;101375.59;2832579;81;21102;-68
2022/03/24 02:39:55;;;;;;;55.33;34.65;;;;;;;4.21;65.76;101378.22;2834730;81;21020;-69
2022/03/24 02:43:58;;;;;;;52.13;32.70;;;;;;;4.14;65.48;101363.98;2826961;82;21643;-68
2022/03/24 02:47:59;;;;;;;63.15;36.73;;;;;;;3.99;67.29;101373.28;2832028;82;21047;-69
2022/03/24 02:52:01;;;;;;;50.20;33.78;;;;;;;3.85;67.22;101373.80;2836399;81;21670;-69
2022/03/24 02:56:03;;;;;;;55.80;33.78;;;;;;;3.76;68.46;101375.45;2836062;82;21051;-69
2022/03/24 03:00:07;;;;;;;51.48;37.08;;;;;;;3.68;68.21;101382.74;2835073;82;21028;-69
2022/03/24 03:04:12;;;;;;;49.88;33.80;;;;;;;3.66;67.30;101388.52;2834651;82;21020;-69
2022/03/24 03:08:13;;;;;;;68.83;39.00;;;;;;;3.56;67.92;101389.30;2830174;82;21553;-69
2022/03/24 03:12:16;;;;;;;50.45;35.08;;;;;;;3.48;69.14;101384.77;2827193;82;21036;-69
2022/03/24 03:16:19;;;;;;;54.60;35.98;;;;;;;3.51;69.33;101396.50;2819899;82;21055;-69
2022/03/24 03:20:20;;;;;;;70.55;41.68;;;;;;;3.52;69.76;101393.80;2830828;81;21087;-69
2022/03/24 03:24:22;;;;;;;118.20;73.28;;;;;;;3.45;71.08;101392.30;2832748;82;21083;-69
2022/03/24 03:28:25;;;;;;;78.97;49.63;;;;;;;3.40;71.29;101396.87;2832238;82;21571;-69
2022/03/24 03:32:26;;;;;;;74.35;46.30;;;;;;;3.40;70.42;101403.45;2822908;81;21074;-69
2022/03/24 03:36:28;;;;;;;57.50;36.23;;;;;;;3.44;69.47;101405.05;2820043;82;21094;-69
2022/03/24 03:40:30;;;;;;;56.70;38.33;;;;;;;3.42;69.13;101402.46;2841302;81;21024;-69
2022/03/24 03:44:32;;;;;;;76.87;37.25;;;;;;;3.37;68.34;101402.23;2826142;82;21063;-69
2022/03/24 03:48:36;;;;;;;62.60;40.43;;;;;;;3.29;68.24;101404.65;2830055;82;21024;-69
2022/03/24 03:52:37;;;;;;;63.73;36.73;;;;;;;3.27;68.05;101403.84;2833225;81;21072;-69
2022/03/24 03:56:39;;;;;;;62.05;40.38;;;;;;;3.25;67.90;101403.52;2829083;81;21053;-69
2022/03/24 04:04:56;;;;;;;68.80;46.80;;;;;;;3.23;68.30;101406.18;2830301;81;21080;-68
2022/03/24 04:08:57;;;;;;;68.05;46.98;;;;;;;3.21;68.12;101405.81;2824077;82;21031;-69
2022/03/24 04:12:59;;;;;;;72.78;49.77;;;;;;;3.20;68.11;101405.41;2829989;82;21532;-69
2022/03/24 04:17:01;;;;;;;70.90;42.98;;;;;;;3.18;68.10;101412.05;2829215;82;21023;-68
2022/03/24 04:21:02;;;;;;;74.62;41.53;;;;;;;3.17;68.27;101416.91;2831308;82;21512;-68
2022/03/24 04:25:05;;;;;;;61.13;38.33;;;;;;;3.21;68.25;101417.65;2831891;82;21686;-68
2022/03/24 04:29:06;;;;;;;63.55;38.60;;;;;;;3.22;68.22;101412.35;2830879;81;21064;-68
2022/03/24 04:33:08;;;;;;;63.40;39.08;;;;;;;3.26;68.07;101419.22;2839707;82;21083;-69
2022/03/24 04:37:09;;;;;;;55.43;34.90;;;;;;;3.24;68.01;101414.91;2832865;82;21063;-68
2022/03/24 04:41:11;;;;;;;62.08;36.42;;;;;;;3.23;68.02;101421.95;2823819;81;21024;-68
2022/03/24 04:45:14;;;;;;;59.48;37.88;;;;;;;3.11;68.50;101416.65;2840866;81;21044;-68
2022/03/24 04:49:15;;;;;;;55.03;37.53;;;;;;;3.06;68.78;101419.89;2824684;82;21039;-69
2022/03/24 04:53:17;;;;;;;54.30;36.00;;;;;;;2.97;70.01;101422.80;2827691;81;21408;-69
2022/03/24 04:57:19;;;;;;;62.50;39.42;;;;;;;2.82;70.75;101417.58;2817135;82;21598;-72
2022/03/24 05:01:20;;;;;;;64.47;39.40;;;;;;;2.67;71.72;101415.82;2831214;82;21062;-72
2022/03/24 05:05:22;;;;;;;61.68;40.48;;;;;;;2.68;71.75;101424.11;2824632;82;21039;-72
2022/03/24 05:09:23;;;;;;;56.37;39.60;;;;;;;2.74;72.04;101430.95;2826652;82;21032;-72
2022/03/24 05:13:25;;;;;;;52.25;37.80;;;;;;;2.90;71.59;101423.91;2825150;81;21071;-72
2022/03/24 05:17:26;;;;;;;73.75;40.92;;;;;;;3.17;71.65;101434.00;2826456;82;21044;-73
2022/03/24 05:21:28;;;;;;;58.13;37.25;;;;;;;3.61;71.48;101443.09;2829570;82;21083;-73
2022/03/24 05:25:29;;;;;;;73.80;39.15;;;;;;;3.95;70.99;101445.40;2826199;81;21594;-73
2022/03/24 05:29:31;;;;;;;63.58;40.30;;;;;;;4.28;70.49;101438.95;2831669;82;21615;-72
2022/03/24 05:33:33;;;;;;;62.27;41.02;;;;;;;4.67;69.98;101442.80;2831271;82;21080;-72
2022/03/24 05:37:35;;;;;;;133.95;46.02;;;;;;;5.03;69.63;101444.04;2833202;82;21035;-72
2022/03/24 05:41:36;;;;;;;67.20;38.42;;;;;;;5.43;68.68;101439.33;2821622;82;21511;-72
2022/03/24 05:45:38;;;;;;;71.67;45.10;;;;;;;5.70;67.38;101447.47;2829681;81;21959;-73
2022/03/24 05:49:40;;;;;;;67.25;38.63;;;;;;;5.97;69.18;101455.10;2830776;82;21683;-72
2022/03/24 05:53:41;;;;;;;66.33;39.78;;;;;;;6.28;66.87;101451.98;2835789;82;21024;-71
2022/03/24 05:57:44;;;;;;;57.17;38.17;;;;;;;6.60;65.68;101457.20;2849665;81;21035;-73
2022/03/24 06:01:47;;;;;;;56.02;38.90;;;;;;;6.86;63.03;101458.59;2841036;81;21055;-73
2022/03/24 06:05:48;;;;;;;58.42;36.03;;;;;;;6.74;61.79;101468.45;2826124;82;21047;-74
2022/03/24 06:09:50;;;;;;;68.00;42.05;;;;;;;6.79;64.66;101465.12;2832378;81;21068;-73
2022/03/24 06:13:53;;;;;;;52.23;37.70;;;;;;;7.25;64.96;101467.34;2825827;82;21092;-73
2022/03/24 06:17:55;;;;;;;65.37;39.92;;;;;;;7.44;63.64;101468.61;2827554;82;21039;-72
2022/03/24 06:21:57;;;;;;;59.40;41.90;;;;;;;7.68;63.60;101469.66;2836133;81;21047;-74
2022/03/24 06:25:59;;;;;;;58.48;38.40;;;;;;;7.78;61.79;101473.53;2828461;82;21052;-74
2022/03/24 06:30:05;;;;;;;64.77;41.53;;;;;;;7.96;63.07;101465.58;2842723;82;21031;-74
2022/03/24 06:34:04;;;;;;;60.05;41.42;;;;;;;8.07;62.87;101471.18;2846563;81;21020;-73
2022/03/24 06:38:07;;;;;;;63.45;41.13;;;;;;;8.25;62.90;101476.42;2897884;79;21030;-72
2022/03/24 06:42:09;;;;;;;80.83;47.50;;;;;;;8.33;62.01;101472.91;2889096;81;21075;-73
2022/03/24 06:46:12;;;;;;;71.90;44.27;;;;;;;8.61;60.84;101476.74;2829869;82;21048;-74
2022/03/24 06:50:14;;;;;;;78.97;45.75;;;;;;;8.64;60.33;101483.20;2877731;82;21080;-71
2022/03/24 06:54:16;;;;;;;70.45;45.73;;;;;;;8.52;60.44;101477.26;2871596;82;21049;-74
2022/03/24 06:58:18;;;;;;;65.97;44.18;;;;;;;8.76;58.34;101484.81;2889705;81;21052;-74
2022/03/24 07:02:20;;;;;;;68.05;46.90;;;;;;;8.53;57.96;101480.30;2831423;82;21023;-73
2022/03/24 07:06:22;;;;;;;64.25;42.80;;;;;;;8.66;58.89;101490.63;2827777;82;21043;-71
2022/03/24 07:10:23;;;;;;;66.65;44.13;;;;;;;8.71;59.67;101499.19;2830231;81;21003;-73
2022/03/24 07:14:25;;;;;;;70.83;48.20;;;;;;;8.71;59.83;101495.20;2835378;82;20989;-73
2022/03/24 07:18:27;;;;;;;63.78;41.35;;;;;;;8.80;61.12;101489.00;2825141;82;21063;-74
2022/03/24 07:22:34;;;;;;;64.10;45.50;;;;;;;8.92;60.35;101492.31;2886279;82;21069;-74
2022/03/24 07:26:36;;;;;;;65.17;43.83;;;;;;;9.15;59.37;101487.50;2884404;82;21021;-73
2022/03/24 07:30:38;;;;;;;73.10;47.05;;;;;;;9.27;58.81;101487.27;2873677;81;21018;-73
2022/03/24 07:34:39;;;;;;;70.52;46.65;;;;;;;9.55;59.30;101489.67;2875201;82;21025;-74
2022/03/24 07:38:41;;;;;;;70.85;43.58;;;;;;;9.58;58.38;101490.33;2883092;82;21034;-72
2022/03/24 07:42:43;;;;;;;69.97;46.98;;;;;;;9.57;58.35;101493.94;2888945;82;21017;-71
2022/03/24 07:46:44;;;;;;;73.33;45.45;;;;;;;9.68;57.32;101493.80;2883077;82;21045;-74
2022/03/24 07:50:48;;;;;;;67.95;45.67;;;;;;;9.69;57.41;101495.02;2875430;82;21069;-72
2022/03/24 07:55:01;;;;;;;73.50;47.67;;;;;;;9.71;56.99;101500.25;2889521;82;21006;-74
2022/03/24 07:59:04;;;;;;;71.22;42.33;;;;;;;9.98;59.08;101496.89;2885209;81;21420;-74
2022/03/24 08:03:16;;;;;;;67.27;45.73;;;;;;;10.03;57.86;101491.30;2887629;82;21037;-72
2022/03/24 08:07:17;;;;;;;66.40;47.65;;;;;;;10.23;58.22;101495.42;2887626;82;21116;-72
2022/03/24 08:11:19;;;;;;;73.87;46.55;;;;;;;10.37;57.75;101492.75;2881718;82;21002;-71
2022/03/24 08:15:21;;;;;;;65.52;44.42;;;;;;;10.66;57.18;101495.91;2891184;82;21056;-73
2022/03/24 08:19:22;;;;;;;60.98;44.13;;;;;;;10.92;56.36;101495.58;2885369;82;21095;-71
2022/03/24 08:23:24;;;;;;;67.87;47.03;;;;;;;11.00;54.74;101493.30;2884381;82;21073;-72
2022/03/24 08:27:25;;;;;;;71.20;47.03;;;;;;;11.10;55.16;101499.34;2898126;81;21009;-73
2022/03/24 08:31:27;;;;;;;80.70;46.13;;;;;;;11.42;54.52;101497.72;2904207;79;21108;-71
2022/03/24 08:35:29;;;;;;;62.95;45.03;;;;;;;11.84;54.06;101495.80;2890012;80;21101;-72
2022/03/24 08:39:30;;;;;;;62.45;41.92;;;;;;;12.17;53.89;101503.41;2861863;81;21057;-71
2022/03/24 08:43:32;;;;;;;62.48;43.38;;;;;;;12.24;52.68;101503.38;2892490;81;21097;-72
2022/03/24 08:47:34;;;;;;;66.92;44.75;;;;;;;12.32;52.93;101502.84;2898681;81;21032;-72
2022/03/24 08:51:36;;;;;;;64.15;41.40;;;;;;;12.50;52.50;101503.34;2903043;81;21013;-72
2022/03/24 08:55:38;;;;;;;66.57;42.30;;;;;;;12.68;52.28;101509.21;2830939;81;20992;-71
2022/03/24 08:59:39;;;;;;;64.03;45.58;;;;;;;12.93;51.82;101504.27;2839568;82;21031;-71
2022/03/24 09:03:41;;;;;;;67.95;43.60;;;;;;;13.08;51.21;101508.13;2836556;82;21031;-71
2022/03/24 09:07:43;;;;;;;63.40;43.87;;;;;;;12.96;50.21;101509.88;2825165;82;21044;-71
2022/03/24 09:11:45;;;;;;;68.02;43.25;;;;;;;13.19;50.44;101501.53;2830376;82;21028;-71
2022/03/24 09:15:46;;;;;;;61.68;40.20;;;;;;;13.39;50.60;101503.20;2838683;82;21822;-71
2022/03/24 09:19:48;;;;;;;63.48;44.30;;;;;;;13.63;49.96;101507.20;2829924;81;21056;-72
2022/03/24 09:23:49;;;;;;;58.02;41.02;;;;;;;13.78;49.18;101507.02;2834483;82;21067;-72
2022/03/24 09:27:51;;;;;;;63.63;39.18;;;;;;;13.92;48.68;101512.64;2824694;82;21028;-72
2022/03/24 09:31:53;;;;;;;56.88;39.83;;;;;;;13.93;47.25;101515.68;2853950;81;21052;-71
2022/03/24 09:35:54;;;;;;;58.02;40.12;;;;;;;14.03;47.69;101518.03;2835883;82;21087;-71
2022/03/24 09:39:56;;;;;;;51.35;36.25;;;;;;;14.26;48.13;101516.73;2837247;80;21024;-71
2022/03/24 09:43:58;;;;;;;55.88;40.83;;;;;;;14.47;46.62;101513.34;2834950;82;21055;-71
2022/03/24 09:48:00;;;;;;;52.20;38.35;;;;;;;14.68;46.67;101516.98;2838520;81;21059;-72
2022/03/24 09:52:02;;;;;;;50.65;34.43;;;;;;;14.83;46.12;101516.77;2879714;81;21038;-72
2022/03/24 09:56:05;;;;;;;45.48;35.65;;;;;;;14.99;44.44;101511.00;2890070;82;21016;-71
2022/03/24 10:00:09;;;;;;;54.27;36.40;;;;;;;15.13;44.25;101513.41;2870428;82;21050;-71
2022/03/24 10:04:16;;;;;;;51.23;34.92;;;;;;;15.14;46.04;101510.27;2806438;84;21029;-71
2022/03/24 10:08:18;;;;;;;58.98;35.65;;;;;;;15.09;45.18;101509.77;2837693;83;21049;-71
2022/03/24 10:12:33;;;;;;;49.18;34.80;;;;;;;15.19;44.88;101501.82;2788355;85;21044;-71
2022/03/24 10:16:41;;;;;;;57.38;35.25;;;;;;;15.31;44.46;101511.55;2889929;81;21098;-72
2022/03/24 10:20:43;;;;;;;54.73;33.45;;;;;;;15.39;43.90;101510.41;2858165;82;21055;-72
2022/03/24 10:24:44;;;;;;;53.35;35.68;;;;;;;15.56;43.96;101506.33;2876374;81;21052;-71
2022/03/24 10:29:00;;;;;;;55.23;33.65;;;;;;;15.74;43.77;101500.41;2892603;82;21016;-72
2022/03/24 10:33:01;;;;;;;48.53;33.87;;;;;;;15.92;43.75;101499.34;2820727;82;21071;-71
2022/03/24 10:37:07;;;;;;;41.25;30.77;;;;;;;16.15;43.95;101500.53;2812121;83;21119;-72
2022/03/24 10:41:28;;;;;;;47.37;24.37;;;;;;;16.29;43.49;101496.64;2873835;82;21043;-73
2022/03/24 10:45:32;;;;;;;37.78;26.85;;;;;;;16.36;38.92;101495.14;2862308;82;21004;-72
2022/03/24 10:49:33;;;;;;;41.05;25.60;;;;;;;16.47;40.69;101493.33;2895999;82;21067;-72
2022/03/24 10:53:42;;;;;;;35.65;26.00;;;;;;;16.61;41.38;101491.63;2889982;82;21056;-71
2022/03/24 10:57:43;;;;;;;45.10;28.15;;;;;;;16.57;41.48;101483.49;2838584;83;21055;-71
2022/03/24 11:01:47;;;;;;;37.42;26.35;;;;;;;16.52;40.95;101481.72;2874294;80;21071;-72
2022/03/24 11:05:49;;;;;;;41.35;28.70;;;;;;;16.34;41.79;101482.83;2840612;82;21042;-72
2022/03/24 11:09:51;;;;;;;43.75;29.00;;;;;;;16.20;41.97;101474.64;2870658;80;21004;-71
2022/03/24 11:14:02;;;;;;;43.02;28.32;;;;;;;16.44;42.75;101474.81;2866248;82;21039;-71
2022/03/24 11:18:04;;;;;;;46.95;30.50;;;;;;;16.63;42.55;101472.19;2863165;82;21076;-72
2022/03/24 11:22:12;;;;;;;41.88;27.90;;;;;;;16.62;42.71;101471.84;2866977;82;21023;-71
2022/03/24 11:26:14;;;;;;;43.48;30.32;;;;;;;16.61;41.36;101463.94;2879885;82;20989;-71
2022/03/24 11:30:18;;;;;;;43.63;29.63;;;;;;;16.79;41.67;101458.23;2869244;82;21043;-71
2022/03/24 11:34:21;;;;;;;43.78;28.87;;;;;;;16.99;42.70;101453.78;2869343;82;21000;-71
2022/03/24 11:38:22;;;;;;;42.45;25.77;;;;;;;17.11;41.58;101442.40;2876281;82;21001;-72
2022/03/24 11:42:24;;;;;;;40.65;27.58;;;;;;;17.21;40.97;101441.06;2861139;80;21048;-72
2022/03/24 11:46:37;;;;;;;43.08;29.87;;;;;;;17.28;40.60;101441.34;2863565;81;21039;-71
2022/03/24 11:50:49;;;;;;;42.33;27.27;;;;;;;17.32;40.62;101437.37;2841906;81;21067;-71
2022/03/24 11:54:53;;;;;;;35.75;26.65;;;;;;;17.41;41.27;101443.27;2792575;83;21068;-71
2022/03/24 11:59:00;;;;;;;35.60;24.12;;;;;;;17.53;41.14;101435.89;2876112;81;21040;-72
2022/03/24 12:03:02;;;;;;;39.30;24.98;;;;;;;17.64;39.69;101435.36;2887077;82;21056;-71
2022/03/24 12:07:05;;;;;;;39.53;25.72;;;;;;;17.59;40.79;101424.19;2858778;82;21075;-72
2022/03/24 12:11:36;;;;;;;32.53;23.42;;;;;;;17.66;39.84;101422.61;2879682;82;21028;-72
2022/03/24 12:15:37;;;;;;;25.97;16.10;;;;;;;17.70;40.05;101411.42;2873763;82;21032;-71
2022/03/24 12:19:49;;;;;;;28.10;16.77;;;;;;;17.80;41.20;101416.78;2886116;80;21048;-71
2022/03/24 12:24:09;;;;;;;27.22;15.98;;;;;;;17.75;39.96;101413.69;2876894;82;21421;-71
2022/03/24 12:28:18;;;;;;;25.52;16.55;;;;;;;17.63;38.17;101408.11;2892194;82;20989;-72
2022/03/24 12:32:25;;;;;;;30.90;17.80;;;;;;;17.52;38.04;101409.98;2870428;81;21083;-72
2022/03/24 12:36:40;;;;;;;21.55;15.25;;;;;;;17.65;38.39;101411.02;2875450;82;21020;-72
2022/03/24 12:40:57;;;;;;;25.35;16.77;;;;;;;17.67;38.28;101405.47;2844423;82;21086;-70
2022/03/24 12:44:59;;;;;;;25.60;16.87;;;;;;;17.80;38.06;101401.14;2835674;83;21027;-70
2022/03/24 12:49:18;;;;;;;30.20;17.40;;;;;;;17.82;38.48;101394.60;2844258;82;21055;-69
2022/03/24 12:53:19;;;;;;;28.30;18.42;;;;;;;17.78;39.37;101388.30;2881651;80;21024;-70
2022/03/24 12:57:25;;;;;;;26.15;17.67;;;;;;;17.92;38.47;101387.01;2881973;80;21011;-69
2022/03/24 13:01:27;;;;;;;;;;;;;;;17.98;38.81;101386.41;2872020;80;21012;-69
2022/03/24 13:05:31;;;;;;;35.90;18.35;;;;;;;18.04;39.79;101375.59;2869707;82;20162;-71
2022/03/24 13:09:33;;;;;;;28.62;16.17;;;;;;;18.01;40.01;101383.41;2820427;83;21018;-71
2022/03/24 13:13:38;;;;;;;24.18;16.37;;;;;;;17.96;38.31;101380.33;2860330;81;21036;-70
2022/03/24 13:17:40;;;;;;;24.92;16.30;;;;;;;17.94;37.73;101372.39;2856230;81;21015;-69
2022/03/24 13:21:42;;;;;;;25.05;15.20;;;;;;;17.91;37.00;101371.86;2872043;81;21067;-69
2022/03/24 13:25:49;;;;;;;22.02;14.60;;;;;;;17.82;38.34;101361.48;2890790;81;21004;-71
2022/03/24 13:29:51;;;;;;;31.82;15.38;;;;;;;17.83;37.16;101373.42;2889270;82;20977;-69
2022/03/24 13:33:52;;;;;;;29.07;18.48;;;;;;;17.94;37.59;101363.48;2890075;82;20961;-69
2022/03/24 13:37:58;;;;;;;24.85;15.40;;;;;;;17.96;36.75;101355.59;2867034;82;20957;-69
2022/03/24 13:42:00;;;;;;;32.48;18.92;;;;;;;17.94;36.46;101356.75;2876750;81;20996;-70
2022/03/24 13:46:02;;;;;;;25.65;15.38;;;;;;;18.02;37.47;101358.22;2875739;80;21032;-71
2022/03/24 13:50:06;;;;;;;25.12;16.48;;;;;;;18.01;36.60;101345.73;2859279;82;21028;-70
2022/03/24 13:54:21;;;;;;;31.77;18.27;;;;;;;18.06;36.83;101339.42;2895217;82;21130;-70
2022/03/24 13:58:23;;;;;;;28.13;16.83;;;;;;;18.10;38.05;101335.94;2883704;82;21035;-69
2022/03/24 14:02:29;;;;;;;29.67;16.65;;;;;;;18.23;37.40;101331.55;2889560;82;21094;-69
2022/03/24 14:06:31;;;;;;;22.05;14.20;;;;;;;18.23;36.76;101334.23;2885342;82;21047;-70
2022/03/24 14:10:55;;;;;;;27.67;15.28;;;;;;;18.26;35.82;101329.41;2874177;82;21003;-71
2022/03/24 14:14:55;;;;;;;23.45;14.50;;;;;;;18.30;36.70;101331.31;2853799;81;21011;-69
2022/03/24 14:19:17;;;;;;;22.07;14.18;;;;;;;18.25;35.80;101325.50;2874003;82;21027;-71
2022/03/24 14:23:32;;;;;;;20.70;13.08;;;;;;;18.20;37.58;101323.29;2870342;82;21103;-70
2022/03/24 14:27:34;;;;;;;23.22;13.85;;;;;;;18.23;35.57;101312.21;2853212;82;21020;-70
2022/03/24 14:31:39;;;;;;;25.35;15.90;;;;;;;18.26;36.02;101315.94;2871473;81;21044;-70
2022/03/24 14:35:50;;;;;;;20.65;14.68;;;;;;;18.26;34.99;101313.73;2880135;81;21020;-70
2022/03/24 14:39:57;;;;;;;21.73;14.45;;;;;;;18.20;35.76;101300.88;2837009;81;21039;-70
2022/03/24 14:44:02;;;;;;;27.55;16.42;;;;;;;18.12;34.89;101298.94;2867269;80;21119;-70
2022/03/24 14:48:11;;;;;;;23.53;14.30;;;;;;;18.13;35.73;101292.08;2862465;80;21072;-68
2022/03/24 14:52:14;;;;;;;28.95;15.08;;;;;;;18.19;34.76;101285.73;2858845;81;21067;-66
2022/03/24 14:56:15;;;;;;;23.80;14.03;;;;;;;18.16;35.50;101277.44;2888096;82;21554;-67
2022/03/24 15:00:18;;;;;;;19.70;12.28;;;;;;;18.25;36.77;101283.77;2888046;82;21088;-67
2022/03/24 15:04:19;;;;;;;21.65;15.25;;;;;;;18.19;36.96;101276.30;2832148;82;21034;-65
2022/03/24 15:08:21;;;;;;;22.58;14.58;;;;;;;18.17;36.71;101275.09;2860126;80;21095;-65
2022/03/24 15:12:23;;;;;;;25.35;15.20;;;;;;;18.17;36.58;101268.88;2809623;83;21091;-65
2022/03/24 15:16:24;;;;;;;20.40;14.20;;;;;;;18.22;36.97;101273.30;2873437;80;21736;-64
2022/03/24 15:20:32;;;;;;;31.65;15.88;;;;;;;18.15;37.18;101276.27;2819801;83;21047;-66
2022/03/24 15:24:33;;;;;;;31.33;17.80;;;;;;;18.12;36.68;101267.50;2849368;82;21064;-66
2022/03/24 15:28:35;;;;;;;23.18;15.72;;;;;;;18.09;36.63;101270.50;2850052;82;21089;-66
2022/03/24 15:32:38;;;;;;;24.65;14.40;;;;;;;17.99;37.29;101268.31;2836430;81;21027;-66
2022/03/24 15:36:39;;;;;;;23.10;14.50;;;;;;;17.87;37.76;101269.02;2879756;80;21473;-67
2022/03/24 15:40:41;;;;;;;19.73;12.60;;;;;;;17.74;39.58;101263.99;2878864;80;21032;-67
2022/03/24 15:44:42;;;;;;;18.77;11.95;;;;;;;17.53;39.98;101269.11;2832277;82;21047;-66
2022/03/24 15:48:44;;;;;;;24.72;11.63;;;;;;;17.40;41.34;101270.79;2844128;82;21072;-67
2022/03/24 15:52:47;;;;;;;30.37;11.80;;;;;;;17.25;39.72;101262.33;2872354;82;21098;-67
2022/03/24 15:56:48;;;;;;;17.85;11.95;;;;;;;17.08;39.39;101254.53;2861296;82;21109;-66
2022/03/24 16:00:50;;;;;;;23.05;12.85;;;;;;;17.00;39.69;101265.17;2837975;83;21143;-67
2022/03/24 16:04:51;;;;;;;21.77;12.53;;;;;;;16.84;40.56;101263.87;2855452;82;21028;-67
2022/03/24 16:08:53;;;;;;;17.70;12.60;;;;;;;16.70;39.85;101261.14;2842050;83;21079;-67
2022/03/24 16:12:55;;;;;;;21.37;14.25;;;;;;;16.60;41.13;101260.28;2864578;82;21011;-67
2022/03/24 16:16:57;;;;;;;21.02;14.38;;;;;;;16.50;41.39;101266.12;2862222;82;21048;-67
2022/03/24 16:20:58;;;;;;;19.75;12.80;;;;;;;16.35;41.36;101262.54;2873523;82;21047;-67
2022/03/24 16:25:00;;;;;;;21.48;12.15;;;;;;;16.22;40.38;101261.95;2851919;82;21011;-67
2022/03/24 16:29:04;;;;;;;22.35;14.15;;;;;;;16.09;39.78;101267.58;2846049;82;21055;-67
2022/03/24 16:33:06;;;;;;;21.42;13.05;;;;;;;15.96;40.68;101270.01;2881983;82;21052;-67
2022/03/24 16:37:08;;;;;;;26.50;16.30;;;;;;;15.80;41.01;101266.48;2881680;82;20992;-66
2022/03/24 16:41:10;;;;;;;17.80;13.40;;;;;;;15.66;40.55;101267.70;2837343;82;21007;-66
2022/03/24 16:45:12;;;;;;;23.05;13.43;;;;;;;15.54;40.37;101270.12;2792453;83;21484;-67
2022/03/24 16:49:14;;;;;;;31.77;15.50;;;;;;;15.42;40.40;101272.88;2847297;82;21019;-66
2022/03/24 16:53:15;;;;;;;23.22;16.97;;;;;;;15.32;40.40;101275.14;2794950;83;21039;-66
2022/03/24 16:57:17;;;;;;;29.85;16.40;;;;;;;15.19;40.59;101276.70;2851945;82;21023;-67
2022/03/24 17:01:19;;;;;;;22.95;16.52;;;;;;;15.05;40.59;101274.73;2785847;84;21046;-67
2022/03/24 17:05:20;;;;;;;31.37;19.55;;;;;;;14.92;40.62;101276.24;2848242;82;21063;-67
2022/03/24 17:09:22;;;;;;;35.80;19.62;;;;;;;14.79;40.86;101281.79;2864144;82;21008;-67
2022/03/24 17:13:24;;;;;;;33.10;20.40;;;;;;;14.64;40.95;101277.68;2871949;82;21000;-66
2022/03/24 17:17:27;;;;;;;41.68;26.35;;;;;;;14.50;41.15;101285.53;2850019;82;21012;-67
2022/03/24 17:21:28;;;;;;;135.32;84.37;;;;;;;14.36;41.38;101282.66;2849489;82;21043;-67
2022/03/24 17:25:30;;;;;;;104.78;58.60;;;;;;;14.23;41.39;101284.99;2859281;82;20984;-67
2022/03/24 17:29:32;;;;;;;74.22;40.60;;;;;;;14.11;41.43;101290.86;2847792;82;21048;-67
2022/03/24 17:33:34;;;;;;;67.03;39.58;;;;;;;14.01;41.39;101296.61;2858926;82;21023;-67
2022/03/24 17:37:36;;;;;;;73.67;34.18;;;;;;;13.91;41.39;101295.63;2835118;82;21024;-66
2022/03/24 17:41:39;;;;;;;66.12;39.00;;;;;;;13.82;41.31;101292.73;2791083;84;21092;-67
2022/03/24 17:45:40;;;;;;;73.00;36.28;;;;;;;13.75;41.22;101287.48;2806444;82;21059;-67
2022/03/24 17:49:42;;;;;;;76.60;47.73;;;;;;;13.69;41.27;101301.35;2841683;82;20981;-67
2022/03/24 17:53:44;;;;;;;87.82;56.35;;;;;;;13.60;41.38;101300.76;2870352;82;21027;-66
2022/03/24 17:57:46;;;;;;;38.40;22.62;;;;;;;13.51;41.75;101303.16;2878559;82;21005;-67
2022/03/24 18:01:49;;;;;;;35.33;22.67;;;;;;;13.35;41.86;101300.81;2821282;82;21107;-67
2022/03/24 18:05:51;;;;;;;37.35;26.30;;;;;;;13.25;42.04;101303.81;2862893;82;21055;-67
2022/03/24 18:09:53;;;;;;;51.50;30.92;;;;;;;13.14;42.19;101305.52;2834386;82;21072;-67
2022/03/24 18:13:54;;;;;;;41.83;26.70;;;;;;;13.08;42.25;101307.80;2858560;82;20988;-66
2022/03/24 18:17:56;;;;;;;42.75;26.42;;;;;;;13.02;42.23;101306.44;2841805;83;20996;-67
2022/03/24 18:21:57;;;;;;;40.30;27.52;;;;;;;12.90;42.53;101308.72;2785359;85;21035;-66
2022/03/24 18:26:00;;;;;;;42.62;32.03;;;;;;;12.67;42.54;101308.13;2834135;82;21126;-66
2022/03/24 18:30:04;;;;;;;55.05;33.18;;;;;;;12.50;42.70;101311.20;2885473;82;21086;-67
2022/03/24 18:34:05;;;;;;;59.88;37.00;;;;;;;12.32;43.59;101321.42;2881080;82;21024;-66